Terminal Aerodrome Forecast
Issued by NWS Northern Indiana

Home | Current Version | Previous Version | Graphics & Text | Print | Product List | Glossary On
Versions: 1 2 3 4 5 6 7 8 9 10 11 12 13
000
FTUS43 KIWX 161700
TAFFWA
TAF
KFWA 161720Z 1618/1718 12012G22KT P6SM SCT150
     FM170000 11009KT P6SM SCT150
     FM171500 19012G20KT P6SM SCT120=

USA.gov is the U.S. government's official web portal to all federal, state and local government web resources and services.